Morgan, Vermont
Current Conditions -  °F | °C
As of 11:15 AM on Thursday 29 Jan 2015 (Local Time) from KEFK Reporting Station
Clear Clear  
Wind Chill:   Ceiling: Unl
Heat Index: 12°   Visibility: 10mi
Dew Point:   Wind: 5mph
Humidity: 58%   Direction: 200°SSW
Pressure: 30.18"   Gusts: NA
Location:  44.91°N, 72.01°W
Report Text: KEFK 291615Z AUTO 20004KT 10SM CLR M11/M18 A3018 RMK AO2 T11101179
Loading
Personal Weather Stations






























Interactive Weather Map New forecast layout! Learn more

10-Day Weather Forecast

Advertisements
Track Severe Weather on mobile